サンサルバドル の空港の天気 - METARとTAF

エルサルバドル国際空港 ( MSLP / SAL ) - エルサルバドル サンサルバドル
飛行場実況気象(Metar)
観測時間01/18 19:50 CST (01/19 01:50 UTC)
風向・風速北北西 2m/s
視程10km以上
天気現象
少しの雲 雲底高度 2230m
気温26℃
湿度79%
気圧1011hPa
METARMSLP 190150Z 34004KT 300V360 9999 FEW073 26/22 Q1011 A2986 NOSIG
過去の天気等 Google飛行場航空写真 Wunderground天気予報

過去48時間のMETAR

飛行場予報(TAF)
発表時間: 1/18 15:25 CST (1/18 21:25 UTC)
予報対象時間: 18日18時 CST ~ 19日18時 CST
風向・風速北北東 3m/s
視程10km以上
全天の8割程度の雲 雲底高度 2130m
19日0時 CST から
風向・風速北 5m/s
視程10km以上
なし
19日12時 CST から
風向・風速南西 5m/s
視程10km以上
全天の4割程度の雲 雲底高度 2130m
TAF MSLP 182125Z 1900/1924 02005KT 9999 BKN070 TX34/1918Z TN23/1911Z
FM190600 01009KT CAVOK
FM191800 23009KT 9999 SCT070